sensor_id;sensor_type;location;lat;lon;timestamp;pressure;altitude;pressure_sealevel;temperature;humidity
11856;BME280;5987;53.140;8.904;2023-01-28T00:02:39;102980.94;;;0.06;100.00
11856;BME280;5987;53.140;8.904;2023-01-28T00:05:43;102981.81;;;0.06;100.00
11856;BME280;5987;53.140;8.904;2023-01-28T00:08:47;102976.63;;;0.06;100.00
11856;BME280;5987;53.140;8.904;2023-01-28T00:11:51;102971.75;;;-0.07;100.00
11856;BME280;5987;53.140;8.904;2023-01-28T00:14:55;102984.25;;;0.03;100.00
11856;BME280;5987;53.140;8.904;2023-01-28T00:18:00;102993.97;;;0.09;100.00
11856;BME280;5987;53.140;8.904;2023-01-28T00:21:06;102991.88;;;0.00;100.00
11856;BME280;5987;53.140;8.904;2023-01-28T00:24:10;102977.16;;;-0.03;100.00
11856;BME280;5987;53.140;8.904;2023-01-28T00:27:14;102974.09;;;-0.13;100.00
11856;BME280;5987;53.140;8.904;2023-01-28T00:30:17;102971.22;;;0.00;100.00
11856;BME280;5987;53.140;8.904;2023-01-28T00:33:23;102970.28;;;-0.02;100.00
11856;BME280;5987;53.140;8.904;2023-01-28T00:36:27;102981.22;;;-0.08;100.00
11856;BME280;5987;53.140;8.904;2023-01-28T00:39:31;102975.31;;;-0.05;100.00
11856;BME280;5987;53.140;8.904;2023-01-28T00:42:35;102975.13;;;-0.10;100.00
11856;BME280;5987;53.140;8.904;2023-01-28T00:45:39;102976.13;;;-0.06;100.00
11856;BME280;5987;53.140;8.904;2023-01-28T00:48:44;102975.53;;;-0.20;100.00
11856;BME280;5987;53.140;8.904;2023-01-28T00:51:48;102975.25;;;-0.07;100.00
11856;BME280;5987;53.140;8.904;2023-01-28T00:54:52;102979.34;;;-0.12;100.00
11856;BME280;5987;53.140;8.904;2023-01-28T00:57:55;102966.22;;;-0.16;100.00
11856;BME280;5987;53.140;8.904;2023-01-28T01:01:07;102967.16;;;-0.14;100.00
11856;BME280;5987;53.140;8.904;2023-01-28T01:04:13;102974.41;;;-0.06;100.00
11856;BME280;5987;53.140;8.904;2023-01-28T01:07:29;102971.91;;;-0.04;100.00
11856;BME280;5987;53.140;8.904;2023-01-28T01:10:43;102971.13;;;-0.02;100.00
11856;BME280;5987;53.140;8.904;2023-01-28T01:13:50;102973.00;;;-0.19;100.00
11856;BME280;5987;53.140;8.904;2023-01-28T01:16:56;102982.59;;;-0.16;100.00
11856;BME280;5987;53.140;8.904;2023-01-28T01:20:01;102984.84;;;-0.04;100.00
11856;BME280;5987;53.140;8.904;2023-01-28T01:23:05;102970.28;;;-0.02;100.00
11856;BME280;5987;53.140;8.904;2023-01-28T01:26:09;102968.13;;;-0.12;100.00
11856;BME280;5987;53.140;8.904;2023-01-28T01:29:13;102971.72;;;-0.09;100.00
11856;BME280;5987;53.140;8.904;2023-01-28T01:32:17;102976.75;;;-0.12;100.00
11856;BME280;5987;53.140;8.904;2023-01-28T01:35:23;102980.59;;;-0.02;100.00
11856;BME280;5987;53.140;8.904;2023-01-28T01:38:28;102977.31;;;0.02;100.00
11856;BME280;5987;53.140;8.904;2023-01-28T01:41:32;102979.50;;;-0.07;100.00
11856;BME280;5987;53.140;8.904;2023-01-28T01:44:58;102979.25;;;-0.13;100.00
11856;BME280;5987;53.140;8.904;2023-01-28T01:48:06;102972.66;;;-0.28;100.00
11856;BME280;5987;53.140;8.904;2023-01-28T01:51:18;102970.59;;;-0.15;100.00
11856;BME280;5987;53.140;8.904;2023-01-28T01:54:26;102975.03;;;-0.11;100.00
11856;BME280;5987;53.140;8.904;2023-01-28T01:57:35;102959.53;;;-0.11;100.00
11856;BME280;5987;53.140;8.904;2023-01-28T02:00:41;102953.94;;;-0.22;100.00
11856;BME280;5987;53.140;8.904;2023-01-28T02:03:53;102964.34;;;-0.21;100.00
11856;BME280;5987;53.140;8.904;2023-01-28T02:07:01;102968.28;;;-0.29;100.00
11856;BME280;5987;53.140;8.904;2023-01-28T02:10:08;102970.06;;;-0.28;100.00
11856;BME280;5987;53.140;8.904;2023-01-28T02:13:15;102975.41;;;-0.23;100.00
11856;BME280;5987;53.140;8.904;2023-01-28T02:16:20;102956.19;;;-0.30;100.00
11856;BME280;5987;53.140;8.904;2023-01-28T02:19:31;102980.78;;;-0.38;100.00
11856;BME280;5987;53.140;8.904;2023-01-28T02:23:17;102979.41;;;-0.30;100.00
11856;BME280;5987;53.140;8.904;2023-01-28T02:26:57;102991.19;;;-0.37;100.00
11856;BME280;5987;53.140;8.904;2023-01-28T02:30:14;102979.28;;;-0.33;100.00
11856;BME280;5987;53.140;8.904;2023-01-28T02:33:29;102973.81;;;-0.41;100.00
11856;BME280;5987;53.140;8.904;2023-01-28T02:36:47;102980.03;;;-0.36;100.00
11856;BME280;5987;53.140;8.904;2023-01-28T02:39:55;102981.69;;;-0.38;100.00
11856;BME280;5987;53.140;8.904;2023-01-28T02:42:59;102976.31;;;-0.42;100.00
11856;BME280;5987;53.140;8.904;2023-01-28T02:46:17;102978.75;;;-0.45;100.00
11856;BME280;5987;53.140;8.904;2023-01-28T02:49:43;102981.03;;;-0.53;100.00
11856;BME280;5987;53.140;8.904;2023-01-28T02:53:02;102987.84;;;-0.54;100.00
11856;BME280;5987;53.140;8.904;2023-01-28T02:56:32;102988.09;;;-0.49;100.00
11856;BME280;5987;53.140;8.904;2023-01-28T02:59:48;102982.25;;;-0.45;100.00
11856;BME280;5987;53.140;8.904;2023-01-28T03:03:04;102976.88;;;-0.49;100.00
11856;BME280;5987;53.140;8.904;2023-01-28T03:06:21;102982.78;;;-0.52;100.00
11856;BME280;5987;53.140;8.904;2023-01-28T03:09:27;102977.34;;;-0.58;100.00
11856;BME280;5987;53.140;8.904;2023-01-28T03:12:31;102984.34;;;-0.56;100.00
11856;BME280;5987;53.140;8.904;2023-01-28T03:15:55;102985.91;;;-0.59;100.00
11856;BME280;5987;53.140;8.904;2023-01-28T03:19:17;102981.09;;;-0.52;100.00
11856;BME280;5987;53.140;8.904;2023-01-28T03:22:45;102976.78;;;-0.51;100.00
11856;BME280;5987;53.140;8.904;2023-01-28T03:26:11;102984.84;;;-0.64;100.00
11856;BME280;5987;53.140;8.904;2023-01-28T03:29:35;102975.81;;;-0.55;100.00
11856;BME280;5987;53.140;8.904;2023-01-28T03:32:59;102977.34;;;-0.39;100.00
11856;BME280;5987;53.140;8.904;2023-01-28T03:36:22;102973.47;;;-0.48;100.00
11856;BME280;5987;53.140;8.904;2023-01-28T03:39:43;102978.16;;;-0.59;100.00
11856;BME280;5987;53.140;8.904;2023-01-28T03:42:46;102980.00;;;-0.57;100.00
11856;BME280;5987;53.140;8.904;2023-01-28T03:45:50;102978.75;;;-0.45;100.00
11856;BME280;5987;53.140;8.904;2023-01-28T03:48:54;102986.78;;;-0.39;100.00
11856;BME280;5987;53.140;8.904;2023-01-28T03:51:59;102986.78;;;-0.39;100.00
11856;BME280;5987;53.140;8.904;2023-01-28T03:55:03;102994.47;;;-0.41;100.00
11856;BME280;5987;53.140;8.904;2023-01-28T03:58:17;102987.34;;;-0.46;100.00
11856;BME280;5987;53.140;8.904;2023-01-28T04:01:20;102988.41;;;-0.41;100.00
11856;BME280;5987;53.140;8.904;2023-01-28T04:04:24;102994.66;;;-0.36;100.00
11856;BME280;5987;53.140;8.904;2023-01-28T04:07:30;102981.41;;;-0.44;100.00
11856;BME280;5987;53.140;8.904;2023-01-28T04:10:34;102984.06;;;-0.42;100.00
11856;BME280;5987;53.140;8.904;2023-01-28T04:13:38;102983.31;;;-0.40;100.00
11856;BME280;5987;53.140;8.904;2023-01-28T04:16:42;102977.41;;;-0.37;100.00
11856;BME280;5987;53.140;8.904;2023-01-28T04:19:46;102972.91;;;-0.41;100.00
11856;BME280;5987;53.140;8.904;2023-01-28T04:22:51;102978.03;;;-0.62;100.00
11856;BME280;5987;53.140;8.904;2023-01-28T04:25:55;102972.81;;;-0.64;100.00
11856;BME280;5987;53.140;8.904;2023-01-28T04:28:59;102983.94;;;-0.65;100.00
11856;BME280;5987;53.140;8.904;2023-01-28T04:32:03;102986.66;;;-0.62;100.00
11856;BME280;5987;53.140;8.904;2023-01-28T04:35:07;102983.72;;;-0.70;100.00
11856;BME280;5987;53.140;8.904;2023-01-28T04:38:13;102976.06;;;-0.68;100.00
11856;BME280;5987;53.140;8.904;2023-01-28T04:41:16;102974.16;;;-0.72;100.00
11856;BME280;5987;53.140;8.904;2023-01-28T04:44:20;102980.84;;;-0.77;100.00
11856;BME280;5987;53.140;8.904;2023-01-28T04:47:24;102988.94;;;-0.88;100.00
11856;BME280;5987;53.140;8.904;2023-01-28T04:50:27;102993.91;;;-0.92;100.00
11856;BME280;5987;53.140;8.904;2023-01-28T04:53:33;102996.81;;;-1.04;100.00
11856;BME280;5987;53.140;8.904;2023-01-28T04:56:37;102994.50;;;-0.98;100.00
11856;BME280;5987;53.140;8.904;2023-01-28T04:59:40;102985.13;;;-0.96;100.00
11856;BME280;5987;53.140;8.904;2023-01-28T05:02:44;102972.09;;;-0.99;100.00
11856;BME280;5987;53.140;8.904;2023-01-28T05:05:48;102971.16;;;-1.01;100.00
11856;BME280;5987;53.140;8.904;2023-01-28T05:08:53;102968.44;;;-1.04;100.00
11856;BME280;5987;53.140;8.904;2023-01-28T05:11:57;102962.06;;;-1.12;100.00
11856;BME280;5987;53.140;8.904;2023-01-28T05:15:00;102966.91;;;-1.18;100.00
11856;BME280;5987;53.140;8.904;2023-01-28T05:18:05;102970.59;;;-1.13;100.00
11856;BME280;5987;53.140;8.904;2023-01-28T05:21:09;102963.72;;;-1.13;100.00
11856;BME280;5987;53.140;8.904;2023-01-28T05:24:14;102959.72;;;-1.26;100.00
11856;BME280;5987;53.140;8.904;2023-01-28T05:27:18;102959.91;;;-1.21;100.00
11856;BME280;5987;53.140;8.904;2023-01-28T05:30:22;102953.09;;;-1.21;100.00
11856;BME280;5987;53.140;8.904;2023-01-28T05:33:26;102958.06;;;-1.43;100.00
11856;BME280;5987;53.140;8.904;2023-01-28T05:36:29;102955.91;;;-1.52;100.00
11856;BME280;5987;53.140;8.904;2023-01-28T05:39:34;102964.94;;;-1.42;100.00
11856;BME280;5987;53.140;8.904;2023-01-28T05:42:38;102959.66;;;-1.45;100.00
11856;BME280;5987;53.140;8.904;2023-01-28T05:45:42;102968.28;;;-1.63;100.00
11856;BME280;5987;53.140;8.904;2023-01-28T05:48:45;102965.84;;;-1.60;100.00
11856;BME280;5987;53.140;8.904;2023-01-28T05:51:49;102969.47;;;-1.74;100.00
11856;BME280;5987;53.140;8.904;2023-01-28T05:54:54;102959.03;;;-1.77;100.00
11856;BME280;5987;53.140;8.904;2023-01-28T05:57:58;102961.94;;;-1.87;100.00
11856;BME280;5987;53.140;8.904;2023-01-28T06:01:02;102964.75;;;-2.01;100.00
11856;BME280;5987;53.140;8.904;2023-01-28T06:04:06;102957.41;;;-2.10;100.00
11856;BME280;5987;53.140;8.904;2023-01-28T06:07:09;102959.59;;;-2.01;100.00
11856;BME280;5987;53.140;8.904;2023-01-28T06:10:16;102963.31;;;-2.12;100.00
11856;BME280;5987;53.140;8.904;2023-01-28T06:13:20;102959.63;;;-2.17;100.00
11856;BME280;5987;53.140;8.904;2023-01-28T06:16:24;102963.25;;;-2.14;100.00
11856;BME280;5987;53.140;8.904;2023-01-28T06:19:27;102954.56;;;-2.16;100.00
11856;BME280;5987;53.140;8.904;2023-01-28T06:22:31;102946.28;;;-2.27;100.00
11856;BME280;5987;53.140;8.904;2023-01-28T06:25:36;102945.84;;;-2.36;100.00
11856;BME280;5987;53.140;8.904;2023-01-28T06:28:39;102947.97;;;-2.27;100.00
11856;BME280;5987;53.140;8.904;2023-01-28T06:31:43;102952.84;;;-2.33;100.00
11856;BME280;5987;53.140;8.904;2023-01-28T06:34:47;102953.31;;;-2.41;100.00
11856;BME280;5987;53.140;8.904;2023-01-28T06:37:52;102961.78;;;-2.43;100.00
11856;BME280;5987;53.140;8.904;2023-01-28T06:40:57;102959.13;;;-2.45;100.00
11856;BME280;5987;53.140;8.904;2023-01-28T06:44:01;102968.69;;;-2.59;100.00
11856;BME280;5987;53.140;8.904;2023-01-28T06:47:05;102951.00;;;-2.52;100.00
11856;BME280;5987;53.140;8.904;2023-01-28T06:50:10;102954.13;;;-2.58;100.00
11856;BME280;5987;53.140;8.904;2023-01-28T06:53:16;102950.63;;;-2.60;100.00
11856;BME280;5987;53.140;8.904;2023-01-28T06:56:21;102956.00;;;-2.55;100.00
11856;BME280;5987;53.140;8.904;2023-01-28T06:59:25;102974.47;;;-2.63;100.00
11856;BME280;5987;53.140;8.904;2023-01-28T07:02:28;102978.78;;;-2.62;100.00
11856;BME280;5987;53.140;8.904;2023-01-28T07:05:32;102984.28;;;-2.55;100.00
11856;BME280;5987;53.140;8.904;2023-01-28T07:08:36;102978.66;;;-2.48;100.00
11856;BME280;5987;53.140;8.904;2023-01-28T07:11:42;102974.28;;;-2.49;100.00
11856;BME280;5987;53.140;8.904;2023-01-28T07:14:46;102987.50;;;-2.60;100.00
11856;BME280;5987;53.140;8.904;2023-01-28T07:17:49;103003.41;;;-2.67;100.00
11856;BME280;5987;53.140;8.904;2023-01-28T07:20:53;103004.03;;;-2.71;100.00
11856;BME280;5987;53.140;8.904;2023-01-28T07:23:57;103003.41;;;-2.67;100.00
11856;BME280;5987;53.140;8.904;2023-01-28T07:27:03;103016.25;;;-2.67;100.00
11856;BME280;5987;53.140;8.904;2023-01-28T07:30:08;103027.03;;;-2.74;100.00
11856;BME280;5987;53.140;8.904;2023-01-28T07:33:12;103027.81;;;-2.75;100.00
11856;BME280;5987;53.140;8.904;2023-01-28T07:36:16;103028.78;;;-2.73;100.00
11856;BME280;5987;53.140;8.904;2023-01-28T07:39:20;103047.59;;;-2.74;100.00
11856;BME280;5987;53.140;8.904;2023-01-28T07:42:26;103054.75;;;-2.68;100.00
11856;BME280;5987;53.140;8.904;2023-01-28T07:45:30;103035.06;;;-2.68;100.00
11856;BME280;5987;53.140;8.904;2023-01-28T07:48:33;103037.47;;;-2.71;100.00
11856;BME280;5987;53.140;8.904;2023-01-28T07:51:38;103041.06;;;-2.67;100.00
11856;BME280;5987;53.140;8.904;2023-01-28T07:54:41;103045.34;;;-2.68;100.00
11856;BME280;5987;53.140;8.904;2023-01-28T07:57:55;103050.41;;;-2.69;100.00
11856;BME280;5987;53.140;8.904;2023-01-28T08:00:59;103048.91;;;-2.66;100.00
11856;BME280;5987;53.140;8.904;2023-01-28T08:04:04;103049.09;;;-2.78;100.00
11856;BME280;5987;53.140;8.904;2023-01-28T08:07:08;103049.69;;;-2.67;100.00
11856;BME280;5987;53.140;8.904;2023-01-28T08:10:12;103054.34;;;-2.60;100.00
11856;BME280;5987;53.140;8.904;2023-01-28T08:13:18;103052.56;;;-2.61;100.00
11856;BME280;5987;53.140;8.904;2023-01-28T08:16:22;103054.66;;;-2.53;100.00
11856;BME280;5987;53.140;8.904;2023-01-28T08:19:26;103058.38;;;-2.48;100.00
11856;BME280;5987;53.140;8.904;2023-01-28T08:22:29;103064.59;;;-2.45;100.00
11856;BME280;5987;53.140;8.904;2023-01-28T08:25:34;103057.25;;;-2.37;100.00
11856;BME280;5987;53.140;8.904;2023-01-28T08:28:40;103061.56;;;-2.03;100.00
11856;BME280;5987;53.140;8.904;2023-01-28T08:31:43;103057.53;;;-1.63;100.00
11856;BME280;5987;53.140;8.904;2023-01-28T08:34:47;103054.69;;;-1.51;100.00
11856;BME280;5987;53.140;8.904;2023-01-28T08:37:52;103044.84;;;-1.60;100.00
11856;BME280;5987;53.140;8.904;2023-01-28T08:40:56;103037.47;;;-1.52;100.00
11856;BME280;5987;53.140;8.904;2023-01-28T08:44:02;103040.91;;;-1.52;100.00
11856;BME280;5987;53.140;8.904;2023-01-28T08:47:06;103040.56;;;-1.60;100.00
11856;BME280;5987;53.140;8.904;2023-01-28T08:50:10;103039.97;;;-1.54;100.00
11856;BME280;5987;53.140;8.904;2023-01-28T08:53:16;103047.63;;;-1.56;100.00
11856;BME280;5987;53.140;8.904;2023-01-28T08:56:20;103051.53;;;-1.46;100.00
11856;BME280;5987;53.140;8.904;2023-01-28T08:59:25;103042.41;;;-1.39;100.00
11856;BME280;5987;53.140;8.904;2023-01-28T09:02:29;103044.75;;;-1.44;100.00
11856;BME280;5987;53.140;8.904;2023-01-28T09:05:34;103059.28;;;-1.28;100.00
11856;BME280;5987;53.140;8.904;2023-01-28T09:08:38;103057.78;;;-1.23;100.00
11856;BME280;5987;53.140;8.904;2023-01-28T09:11:42;103057.66;;;-1.26;100.00
11856;BME280;5987;53.140;8.904;2023-01-28T09:14:47;103073.56;;;-1.16;100.00
11856;BME280;5987;53.140;8.904;2023-01-28T09:17:56;103072.66;;;-0.99;100.00
11856;BME280;5987;53.140;8.904;2023-01-28T09:21:04;103082.97;;;-0.99;100.00
11856;BME280;5987;53.140;8.904;2023-01-28T09:24:10;103102.00;;;-0.97;100.00
11856;BME280;5987;53.140;8.904;2023-01-28T09:27:15;103099.56;;;-0.94;100.00
11856;BME280;5987;53.140;8.904;2023-01-28T09:30:20;103098.16;;;-0.87;100.00
11856;BME280;5987;53.140;8.904;2023-01-28T09:33:24;103098.38;;;-0.82;100.00
11856;BME280;5987;53.140;8.904;2023-01-28T09:36:28;103095.25;;;-0.75;100.00
11856;BME280;5987;53.140;8.904;2023-01-28T09:39:32;103106.81;;;-0.67;100.00
11856;BME280;5987;53.140;8.904;2023-01-28T09:42:54;103104.56;;;-0.59;100.00
11856;BME280;5987;53.140;8.904;2023-01-28T09:46:05;103108.00;;;-0.60;100.00
11856;BME280;5987;53.140;8.904;2023-01-28T09:49:19;103110.25;;;-0.48;100.00
11856;BME280;5987;53.140;8.904;2023-01-28T09:52:35;103104.97;;;-0.32;100.00
11856;BME280;5987;53.140;8.904;2023-01-28T09:55:45;103110.53;;;-0.23;100.00
11856;BME280;5987;53.140;8.904;2023-01-28T09:58:50;103107.81;;;-0.06;100.00
11856;BME280;5987;53.140;8.904;2023-01-28T10:02:02;103106.53;;;0.04;100.00
11856;BME280;5987;53.140;8.904;2023-01-28T10:05:19;103099.50;;;0.01;100.00
11856;BME280;5987;53.140;8.904;2023-01-28T10:08:54;103102.88;;;0.20;100.00
11856;BME280;5987;53.140;8.904;2023-01-28T10:12:30;103092.44;;;-0.03;100.00
11856;BME280;5987;53.140;8.904;2023-01-28T10:16:04;103076.28;;;0.01;100.00
11856;BME280;5987;53.140;8.904;2023-01-28T10:19:20;103076.03;;;-0.05;100.00
11856;BME280;5987;53.140;8.904;2023-01-28T10:22:33;103075.72;;;0.08;100.00
11856;BME280;5987;53.140;8.904;2023-01-28T10:25:42;103069.56;;;-0.15;100.00
11856;BME280;5987;53.140;8.904;2023-01-28T10:28:56;103078.66;;;-0.04;100.00
11856;BME280;5987;53.140;8.904;2023-01-28T10:32:15;103067.69;;;0.22;100.00
11856;BME280;5987;53.140;8.904;2023-01-28T10:35:22;103056.28;;;-0.03;100.00
11856;BME280;5987;53.140;8.904;2023-01-28T10:38:27;103057.84;;;0.13;100.00
11856;BME280;5987;53.140;8.904;2023-01-28T10:41:32;103056.59;;;0.24;100.00
11856;BME280;5987;53.140;8.904;2023-01-28T10:44:44;103041.56;;;0.15;100.00
11856;BME280;5987;53.140;8.904;2023-01-28T10:47:59;103015.88;;;0.61;100.00
11856;BME280;5987;53.140;8.904;2023-01-28T10:51:05;103016.00;;;0.64;100.00
11856;BME280;5987;53.140;8.904;2023-01-28T10:54:21;103020.53;;;0.70;100.00
11856;BME280;5987;53.140;8.904;2023-01-28T10:57:25;103009.41;;;0.72;100.00
11856;BME280;5987;53.140;8.904;2023-01-28T11:00:34;103003.28;;;0.70;100.00
11856;BME280;5987;53.140;8.904;2023-01-28T11:03:52;103014.22;;;0.85;100.00
11856;BME280;5987;53.140;8.904;2023-01-28T11:07:00;103011.47;;;0.58;100.00
11856;BME280;5987;53.140;8.904;2023-01-28T11:10:28;102994.94;;;0.55;100.00
11856;BME280;5987;53.140;8.904;2023-01-28T11:13:33;102985.53;;;0.34;100.00
11856;BME280;5987;53.140;8.904;2023-01-28T11:16:38;102980.59;;;0.40;100.00
11856;BME280;5987;53.140;8.904;2023-01-28T11:19:42;102984.44;;;0.29;100.00
11856;BME280;5987;53.140;8.904;2023-01-28T11:22:49;102970.31;;;0.21;100.00
11856;BME280;5987;53.140;8.904;2023-01-28T11:26:05;102958.66;;;0.30;100.00
11856;BME280;5987;53.140;8.904;2023-01-28T11:29:22;102947.47;;;0.53;100.00
11856;BME280;5987;53.140;8.904;2023-01-28T11:32:28;102922.97;;;0.43;100.00
11856;BME280;5987;53.140;8.904;2023-01-28T11:35:32;102928.91;;;0.40;100.00
11856;BME280;5987;53.140;8.904;2023-01-28T11:38:49;102918.13;;;0.73;100.00
11856;BME280;5987;53.140;8.904;2023-01-28T11:41:53;102920.75;;;0.75;100.00
11856;BME280;5987;53.140;8.904;2023-01-28T11:44:57;102931.59;;;0.89;100.00
11856;BME280;5987;53.140;8.904;2023-01-28T11:48:23;102940.47;;;0.95;100.00
11856;BME280;5987;53.140;8.904;2023-01-28T11:51:39;102952.31;;;1.37;100.00
11856;BME280;5987;53.140;8.904;2023-01-28T11:55:00;102958.56;;;1.42;100.00
11856;BME280;5987;53.140;8.904;2023-01-28T11:58:21;102950.94;;;1.47;100.00
11856;BME280;5987;53.140;8.904;2023-01-28T12:01:39;102957.16;;;1.52;100.00
11856;BME280;5987;53.140;8.904;2023-01-28T12:05:07;102946.88;;;1.53;100.00
11856;BME280;5987;53.140;8.904;2023-01-28T12:08:21;102955.63;;;1.83;100.00
11856;BME280;5987;53.140;8.904;2023-01-28T12:11:42;102949.59;;;1.58;100.00
11856;BME280;5987;53.140;8.904;2023-01-28T12:19:23;102953.97;;;1.85;100.00
11856;BME280;5987;53.140;8.904;2023-01-28T12:23:02;102948.75;;;1.58;100.00
11856;BME280;5987;53.140;8.904;2023-01-28T12:26:14;102939.00;;;1.76;100.00
11856;BME280;5987;53.140;8.904;2023-01-28T12:29:34;102930.69;;;1.86;100.00
11856;BME280;5987;53.140;8.904;2023-01-28T12:32:59;102909.72;;;1.53;100.00
11856;BME280;5987;53.140;8.904;2023-01-28T12:36:22;102928.16;;;1.12;100.00
11856;BME280;5987;53.140;8.904;2023-01-28T12:39:50;102939.50;;;1.16;100.00
11856;BME280;5987;53.140;8.904;2023-01-28T12:43:04;102938.50;;;1.12;100.00
11856;BME280;5987;53.140;8.904;2023-01-28T12:46:25;102923.22;;;1.18;100.00
11856;BME280;5987;53.140;8.904;2023-01-28T12:49:39;102912.72;;;1.40;100.00
11856;BME280;5987;53.140;8.904;2023-01-28T12:52:53;102887.41;;;1.57;100.00
11856;BME280;5987;53.140;8.904;2023-01-28T12:56:05;102866.59;;;1.79;100.00
11856;BME280;5987;53.140;8.904;2023-01-28T12:59:15;102877.06;;;2.10;100.00
11856;BME280;5987;53.140;8.904;2023-01-28T13:02:28;102864.34;;;1.90;100.00
11856;BME280;5987;53.140;8.904;2023-01-28T13:05:40;102853.69;;;1.81;100.00
11856;BME280;5987;53.140;8.904;2023-01-28T13:08:47;102861.81;;;1.92;100.00
11856;BME280;5987;53.140;8.904;2023-01-28T13:11:56;102864.19;;;1.85;100.00
11856;BME280;5987;53.140;8.904;2023-01-28T13:15:01;102864.09;;;1.82;100.00
11856;BME280;5987;53.140;8.904;2023-01-28T13:18:06;102873.91;;;1.93;100.00
11856;BME280;5987;53.140;8.904;2023-01-28T13:21:16;102872.94;;;1.89;100.00
11856;BME280;5987;53.140;8.904;2023-01-28T13:24:35;102883.44;;;1.94;100.00
11856;BME280;5987;53.140;8.904;2023-01-28T13:27:39;102880.56;;;1.84;100.00
11856;BME280;5987;53.140;8.904;2023-01-28T13:30:48;102872.13;;;1.64;100.00
11856;BME280;5987;53.140;8.904;2023-01-28T13:34:04;102878.75;;;1.56;100.00
11856;BME280;5987;53.140;8.904;2023-01-28T13:37:23;102872.09;;;1.63;100.00
11856;BME280;5987;53.140;8.904;2023-01-28T13:40:30;102885.75;;;1.59;100.00
11856;BME280;5987;53.140;8.904;2023-01-28T13:43:39;102884.84;;;1.57;100.00
11856;BME280;5987;53.140;8.904;2023-01-28T13:46:44;102895.97;;;1.54;100.00
11856;BME280;5987;53.140;8.904;2023-01-28T13:49:54;102891.97;;;1.64;100.00
11856;BME280;5987;53.140;8.904;2023-01-28T13:53:04;102879.03;;;1.64;100.00
11856;BME280;5987;53.140;8.904;2023-01-28T13:56:24;102884.13;;;1.61;100.00
11856;BME280;5987;53.140;8.904;2023-01-28T13:59:45;102881.44;;;1.58;100.00
11856;BME280;5987;53.140;8.904;2023-01-28T14:03:36;102864.31;;;1.63;100.00
11856;BME280;5987;53.140;8.904;2023-01-28T14:07:24;102871.16;;;1.61;100.00
11856;BME280;5987;53.140;8.904;2023-01-28T14:10:44;102888.63;;;1.66;100.00
11856;BME280;5987;53.140;8.904;2023-01-28T14:15:04;102891.44;;;2.00;100.00
11856;BME280;5987;53.140;8.904;2023-01-28T14:18:20;102885.22;;;1.95;100.00
11856;BME280;5987;53.140;8.904;2023-01-28T14:21:27;102895.47;;;1.92;100.00
11856;BME280;5987;53.140;8.904;2023-01-28T14:24:36;102887.06;;;1.99;100.00
11856;BME280;5987;53.140;8.904;2023-01-28T14:27:46;102887.50;;;1.85;100.00
11856;BME280;5987;53.140;8.904;2023-01-28T14:30:57;102888.53;;;1.91;100.00
11856;BME280;5987;53.140;8.904;2023-01-28T14:34:11;102891.03;;;1.87;100.00
11856;BME280;5987;53.140;8.904;2023-01-28T14:37:21;102901.38;;;1.87;100.00
11856;BME280;5987;53.140;8.904;2023-01-28T14:40:30;102889.94;;;1.81;100.00
11856;BME280;5987;53.140;8.904;2023-01-28T14:43:37;102889.16;;;1.83;100.00
11856;BME280;5987;53.140;8.904;2023-01-28T14:46:53;102886.03;;;1.94;100.00
11856;BME280;5987;53.140;8.904;2023-01-28T14:50:32;102883.41;;;1.92;100.00
11856;BME280;5987;53.140;8.904;2023-01-28T14:54:19;102894.75;;;1.96;100.00
11856;BME280;5987;53.140;8.904;2023-01-28T14:57:43;102905.75;;;1.88;100.00
11856;BME280;5987;53.140;8.904;2023-01-28T15:00:56;102918.47;;;1.82;100.00
11856;BME280;5987;53.140;8.904;2023-01-28T15:04:01;102927.06;;;1.81;100.00
11856;BME280;5987;53.140;8.904;2023-01-28T15:07:17;102922.84;;;1.83;100.00
11856;BME280;5987;53.140;8.904;2023-01-28T15:10:27;102921.03;;;1.81;100.00
11856;BME280;5987;53.140;8.904;2023-01-28T15:13:38;102923.66;;;1.82;100.00
11856;BME280;5987;53.140;8.904;2023-01-28T15:16:47;102927.03;;;1.80;100.00
11856;BME280;5987;53.140;8.904;2023-01-28T15:19:53;102927.06;;;1.81;100.00
11856;BME280;5987;53.140;8.904;2023-01-28T15:23:00;102921.75;;;1.77;100.00
11856;BME280;5987;53.140;8.904;2023-01-28T15:26:09;102913.38;;;1.85;100.00
11856;BME280;5987;53.140;8.904;2023-01-28T15:29:29;102903.66;;;1.78;100.00
11856;BME280;5987;53.140;8.904;2023-01-28T15:32:33;102898.38;;;1.75;100.00
11856;BME280;5987;53.140;8.904;2023-01-28T15:35:45;102885.25;;;1.69;100.00
11856;BME280;5987;53.140;8.904;2023-01-28T15:38:49;102878.22;;;1.65;100.00
11856;BME280;5987;53.140;8.904;2023-01-28T15:41:58;102893.84;;;1.68;100.00
11856;BME280;5987;53.140;8.904;2023-01-28T15:45:14;102892.06;;;1.67;100.00
11856;BME280;5987;53.140;8.904;2023-01-28T15:48:19;102890.31;;;1.66;100.00
11856;BME280;5987;53.140;8.904;2023-01-28T15:51:25;102892.78;;;1.63;100.00
11856;BME280;5987;53.140;8.904;2023-01-28T15:54:30;102875.50;;;1.62;100.00
11856;BME280;5987;53.140;8.904;2023-01-28T15:57:34;102876.38;;;1.62;100.00
11856;BME280;5987;53.140;8.904;2023-01-28T16:00:39;102872.97;;;1.63;100.00
11856;BME280;5987;53.140;8.904;2023-01-28T16:04:01;102870.06;;;1.54;100.00
11856;BME280;5987;53.140;8.904;2023-01-28T16:07:06;102876.66;;;1.44;100.00
11856;BME280;5987;53.140;8.904;2023-01-28T16:10:21;102871.13;;;1.35;100.00
11856;BME280;5987;53.140;8.904;2023-01-28T16:13:30;102890.81;;;1.30;100.00
11856;BME280;5987;53.140;8.904;2023-01-28T16:16:37;102896.00;;;1.30;100.00
11856;BME280;5987;53.140;8.904;2023-01-28T16:19:45;102896.09;;;1.33;100.00
11856;BME280;5987;53.140;8.904;2023-01-28T16:22:54;102910.97;;;1.39;100.00
11856;BME280;5987;53.140;8.904;2023-01-28T16:26:00;102893.75;;;1.41;100.00
11856;BME280;5987;53.140;8.904;2023-01-28T16:29:13;102902.44;;;1.41;100.00
11856;BME280;5987;53.140;8.904;2023-01-28T16:32:34;102905.03;;;1.41;100.00
11856;BME280;5987;53.140;8.904;2023-01-28T16:35:38;102905.94;;;1.43;100.00
11856;BME280;5987;53.140;8.904;2023-01-28T16:39:02;102902.47;;;1.43;100.00
11856;BME280;5987;53.140;8.904;2023-01-28T16:42:07;102897.34;;;1.44;100.00
11856;BME280;5987;53.140;8.904;2023-01-28T16:45:17;102888.72;;;1.44;100.00